Time;durP1;ratioP1;P1;durP2;ratioP2;P2;SDS_P1;SDS_P2;PMS_P1;PMS_P2;Temp;Humidity;BMP_temperature;BMP_pressure;BME280_temperature;BME280_humidity;BME280_pressure;Samples;Min_cycle;Max_cycle;Signal;HPM_P1;HPM_P2
2022/04/14 00:01:38;;;;;;;3.67;2.50;;;15.50;79.50;;;;;;5006179;28;20582;-77
2022/04/14 00:04:06;;;;;;;3.25;2.80;;;15.50;79.60;;;;;;5022101;28;20503;-75
2022/04/14 00:06:33;;;;;;;2.90;2.55;;;15.50;79.70;;;;;;5020725;28;20056;-75
2022/04/14 00:09:00;;;;;;;3.08;2.70;;;15.50;79.60;;;;;;5015436;28;20121;-73
2022/04/14 00:11:27;;;;;;;3.40;2.38;;;15.50;79.50;;;;;;5016245;28;20037;-77
2022/04/14 00:13:54;;;;;;;2.80;2.50;;;15.50;79.50;;;;;;5018211;28;20045;-76
2022/04/14 00:16:20;;;;;;;3.38;2.97;;;15.50;79.50;;;;;;5019322;28;20054;-76
2022/04/14 00:18:47;;;;;;;3.35;2.60;;;15.50;79.50;;;;;;5028124;28;20068;-75
2022/04/14 00:21:15;;;;;;;2.78;2.33;;;15.50;79.50;;;;;;5034901;28;20051;-75
2022/04/14 00:23:42;;;;;;;4.53;2.78;;;15.50;79.40;;;;;;5008100;28;20112;-76
2022/04/14 00:26:10;;;;;;;2.88;2.50;;;15.40;79.30;;;;;;4999605;28;20045;-77
2022/04/14 00:28:40;;;;;;;3.92;3.45;;;15.50;79.50;;;;;;5017319;28;20050;-77
2022/04/14 00:31:07;;;;;;;3.35;2.97;;;15.40;79.60;;;;;;5019491;28;20140;-77
2022/04/14 00:33:34;;;;;;;3.30;2.97;;;15.50;79.70;;;;;;5016415;28;20050;-77
2022/04/14 00:36:01;;;;;;;3.65;3.33;;;15.50;79.70;;;;;;5014344;28;20065;-76
2022/04/14 00:38:30;;;;;;;3.60;2.83;;;15.50;79.70;;;;;;4999310;28;20542;-76
2022/04/14 00:40:57;;;;;;;3.20;2.80;;;15.40;79.60;;;;;;5013976;28;20046;-75
2022/04/14 00:43:30;;;;;;;3.65;2.65;;;15.40;79.50;;;;;;5015119;28;20555;-75
2022/04/14 00:45:58;;;;;;;3.30;3.00;;;15.50;79.70;;;;;;5015893;28;20061;-77
2022/04/14 00:48:25;;;;;;;3.35;2.70;;;15.50;79.70;;;;;;5012579;28;20045;-77
2022/04/14 00:50:52;;;;;;;3.80;3.40;;;15.50;79.80;;;;;;5027336;28;20432;-75
2022/04/14 00:53:18;;;;;;;3.58;3.28;;;15.50;79.90;;;;;;5020721;28;20363;-75
2022/04/14 00:55:47;;;;;;;3.70;3.40;;;15.50;80.00;;;;;;5016700;28;20993;-76
2022/04/14 00:58:15;;;;;;;4.35;3.95;;;15.50;80.20;;;;;;5033394;28;20025;-76
2022/04/14 01:00:45;;;;;;;4.40;4.00;;;15.50;80.20;;;;;;5027779;28;20030;-76
2022/04/14 01:03:12;;;;;;;3.97;3.20;;;15.50;80.20;;;;;;5016379;28;20069;-75
2022/04/14 01:05:39;;;;;;;3.50;3.20;;;15.40;80.00;;;;;;4998173;28;20650;-75
2022/04/14 01:08:07;;;;;;;4.28;3.88;;;15.50;80.20;;;;;;4997383;28;20723;-77
2022/04/14 01:10:35;;;;;;;3.67;3.38;;;15.40;80.10;;;;;;5012456;28;20051;-74
2022/04/14 01:13:04;;;;;;;3.33;3.03;;;15.50;80.20;;;;;;4995124;28;20507;-76
2022/04/14 01:15:30;;;;;;;3.20;2.90;;;15.40;80.00;;;;;;4994411;28;20531;-75
2022/04/14 01:17:59;;;;;;;3.58;3.28;;;15.40;80.00;;;;;;5018014;28;20727;-75
2022/04/14 01:20:26;;;;;;;3.55;3.17;;;15.50;80.10;;;;;;5016517;28;20045;-75
2022/04/14 01:22:57;;;;;;;3.50;3.20;;;15.50;80.20;;;;;;5017225;28;20068;-75
2022/04/14 01:25:26;;;;;;;4.25;3.85;;;15.50;80.20;;;;;;5016595;28;20668;-77
2022/04/14 01:27:54;;;;;;;3.55;3.25;;;15.40;80.10;;;;;;5000446;28;20148;-75
2022/04/14 01:30:21;;;;;;;3.83;3.42;;;15.50;80.20;;;;;;4998966;28;20048;-77
2022/04/14 01:32:49;;;;;;;4.00;3.60;;;15.40;80.10;;;;;;5018526;28;20037;-75
2022/04/14 01:35:16;;;;;;;4.60;4.20;;;15.50;80.30;;;;;;5008554;28;20058;-75
2022/04/14 01:37:43;;;;;;;3.95;3.55;;;15.50;80.30;;;;;;5020614;28;20097;-75
2022/04/14 01:40:11;;;;;;;3.90;3.60;;;15.50;80.30;;;;;;5019952;28;20077;-75
2022/04/14 01:42:40;;;;;;;4.22;3.83;;;15.40;80.30;;;;;;5016144;28;20033;-74
2022/04/14 01:45:09;;;;;;;3.72;2.70;;;15.50;80.30;;;;;;5018280;28;20043;-78
2022/04/14 01:47:39;;;;;;;3.92;2.83;;;15.40;80.20;;;;;;5017069;28;20121;-77
2022/04/14 01:50:08;;;;;;;4.53;3.80;;;15.40;80.20;;;;;;5011888;28;20055;-75
2022/04/14 01:52:36;;;;;;;3.63;3.22;;;15.50;80.40;;;;;;4993825;28;20139;-76
2022/04/14 01:55:04;;;;;;;3.40;3.10;;;15.40;80.90;;;;;;5013859;28;20041;-74
2022/04/14 01:57:31;;;;;;;4.70;4.25;;;15.40;80.20;;;;;;5019095;28;20048;-77
2022/04/14 02:00:01;;;;;;;4.20;3.80;;;15.40;80.30;;;;;;5017281;28;20536;-76
2022/04/14 02:02:28;;;;;;;3.65;3.20;;;15.40;80.30;;;;;;5015498;28;20140;-76
2022/04/14 02:04:55;;;;;;;3.92;2.97;;;15.50;80.40;;;;;;5014332;28;20042;-75
2022/04/14 02:07:22;;;;;;;3.72;3.38;;;15.40;80.20;;;;;;5011932;28;20044;-76
2022/04/14 02:09:49;;;;;;;3.88;3.47;;;15.40;80.30;;;;;;4998999;28;20041;-76
2022/04/14 02:12:16;;;;;;;3.47;3.17;;;15.40;80.30;;;;;;4998081;28;20050;-76
2022/04/14 02:14:43;;;;;;;3.70;3.40;;;15.40;80.40;;;;;;5012678;28;20049;-74
2022/04/14 02:17:12;;;;;;;4.15;3.75;;;15.50;80.60;;;;;;5015091;28;20115;-74
2022/04/14 02:19:39;;;;;;;4.40;4.00;;;15.50;80.70;;;;;;5009596;28;20042;-77
2022/04/14 02:22:06;;;;;;;3.90;3.50;;;15.40;80.50;;;;;;5012340;28;20038;-74
2022/04/14 02:24:32;;;;;;;4.30;3.90;;;15.40;80.60;;;;;;5026976;28;20045;-74
2022/04/14 02:26:59;;;;;;;3.50;3.20;;;15.40;80.60;;;;;;5000986;28;20056;-74
2022/04/14 02:29:26;;;;;;;3.78;3.47;;;15.40;80.50;;;;;;5013186;28;20120;-76
2022/04/14 02:32:00;;;;;;;4.07;3.28;;;15.40;80.50;;;;;;5015215;28;20132;-74
2022/04/14 02:34:45;;;;;;;3.92;3.53;;;15.40;80.50;;;;;;5012802;28;20049;-75
2022/04/14 02:37:31;;;;;;;4.07;3.55;;;15.40;80.50;;;;;;5011208;28;20049;-74
2022/04/14 02:39:59;;;;;;;3.92;3.63;;;15.40;80.50;;;;;;5012934;28;20049;-74
2022/04/14 02:42:26;;;;;;;3.45;3.13;;;15.40;80.50;;;;;;5015193;28;20041;-77
2022/04/14 02:44:59;;;;;;;3.85;3.10;;;15.40;80.50;;;;;;4996444;28;20057;-74
2022/04/14 02:47:26;;;;;;;3.45;3.15;;;15.40;80.50;;;;;;5013788;28;20045;-75
2022/04/14 02:49:54;;;;;;;3.25;2.95;;;15.40;80.40;;;;;;5014678;28;20041;-76
2022/04/14 02:52:21;;;;;;;3.60;3.30;;;15.40;80.40;;;;;;5006664;28;20052;-74
2022/04/14 02:54:48;;;;;;;3.53;3.10;;;15.40;80.50;;;;;;5013944;28;20045;-75
2022/04/14 02:57:14;;;;;;;4.38;3.97;;;15.40;80.50;;;;;;5011589;28;20049;-75
2022/04/14 02:59:41;;;;;;;3.72;3.15;;;15.40;80.60;;;;;;5016085;28;20095;-74
2022/04/14 03:02:08;;;;;;;5.70;4.60;;;15.40;80.60;;;;;;4999251;28;20049;-75
2022/04/14 03:04:35;;;;;;;4.53;4.13;;;15.40;80.60;;;;;;5012795;28;20050;-74
2022/04/14 03:07:04;;;;;;;4.65;4.25;;;15.40;80.60;;;;;;5013073;28;20051;-74
2022/04/14 03:09:31;;;;;;;4.50;4.10;;;15.40;80.60;;;;;;5010406;28;20073;-75
2022/04/14 03:11:59;;;;;;;4.28;3.60;;;15.40;80.70;;;;;;5010423;28;20120;-75
2022/04/14 03:14:26;;;;;;;3.92;3.45;;;15.40;80.60;;;;;;5014960;28;20148;-77
2022/04/14 03:16:53;;;;;;;3.60;3.30;;;15.40;80.60;;;;;;5012337;28;20095;-76
2022/04/14 03:19:19;;;;;;;3.63;3.28;;;15.40;80.80;;;;;;5015086;28;20037;-75
2022/04/14 03:21:47;;;;;;;4.18;3.67;;;15.40;80.70;;;;;;5017753;28;20052;-77
2022/04/14 03:24:15;;;;;;;4.68;4.07;;;15.40;80.80;;;;;;5020060;28;20045;-75
2022/04/14 03:26:42;;;;;;;4.35;3.90;;;15.40;80.80;;;;;;5005304;28;20049;-76
2022/04/14 03:29:09;;;;;;;4.32;3.80;;;15.40;80.80;;;;;;5018019;28;20041;-74
2022/04/14 03:31:36;;;;;;;4.50;3.70;;;15.40;80.70;;;;;;4997590;28;20049;-74
2022/04/14 03:34:03;;;;;;;3.97;3.40;;;15.40;80.70;;;;;;5022049;28;20096;-75
2022/04/14 03:36:29;;;;;;;4.32;3.50;;;15.40;80.80;;;;;;5019882;28;20049;-77
2022/04/14 03:38:58;;;;;;;4.15;3.50;;;15.50;80.80;;;;;;5033660;28;20041;-74
2022/04/14 03:41:26;;;;;;;3.60;3.30;;;15.40;80.70;;;;;;5032957;28;20037;-76
2022/04/14 03:43:53;;;;;;;4.10;3.70;;;15.40;80.80;;;;;;5022845;28;20050;-74
2022/04/14 03:46:20;;;;;;;4.15;3.75;;;15.40;80.80;;;;;;5017971;28;20065;-76
2022/04/14 03:48:47;;;;;;;4.10;3.70;;;15.40;80.80;;;;;;4999144;28;20077;-75
2022/04/14 03:51:14;;;;;;;3.70;3.40;;;15.40;80.80;;;;;;5027215;28;20056;-76
2022/04/14 03:53:41;;;;;;;4.57;4.07;;;15.40;80.80;;;;;;5023449;28;20064;-74
2022/04/14 03:56:08;;;;;;;4.72;3.92;;;15.40;80.80;;;;;;5020251;28;20041;-74
2022/04/14 03:58:37;;;;;;;3.95;3.58;;;15.40;80.80;;;;;;5018446;28;20058;-76
2022/04/14 04:01:04;;;;;;;4.53;3.83;;;15.40;80.90;;;;;;5001098;28;20120;-74
2022/04/14 04:03:31;;;;;;;5.18;3.92;;;15.40;80.70;;;;;;4999489;28;20038;-74
2022/04/14 04:05:59;;;;;;;4.18;3.70;;;15.40;80.70;;;;;;4983606;28;20073;-76
2022/04/14 04:08:26;;;;;;;4.75;3.50;;;15.40;80.80;;;;;;4965981;28;20060;-77
2022/04/14 04:10:53;;;;;;;5.00;4.05;;;15.40;80.70;;;;;;4995046;28;20133;-75
2022/04/14 04:13:20;;;;;;;4.10;3.20;;;15.40;80.80;;;;;;4995396;28;20052;-76
2022/04/14 04:15:48;;;;;;;3.72;3.25;;;15.40;80.70;;;;;;4982329;28;20054;-76
2022/04/14 04:18:15;;;;;;;3.63;3.22;;;15.40;80.70;;;;;;4999915;28;20088;-75
2022/04/14 04:20:44;;;;;;;3.95;3.25;;;15.40;80.70;;;;;;4995089;28;20077;-75
2022/04/14 04:23:11;;;;;;;3.58;3.22;;;15.40;80.80;;;;;;5022782;28;20048;-75
2022/04/14 04:25:38;;;;;;;4.22;3.65;;;15.40;80.70;;;;;;5007840;28;20069;-76
2022/04/14 04:28:05;;;;;;;3.55;3.20;;;15.40;80.80;;;;;;5003106;28;20044;-77
2022/04/14 04:30:32;;;;;;;3.80;3.15;;;15.40;80.80;;;;;;5000685;28;20057;-75
2022/04/14 04:33:00;;;;;;;3.80;3.40;;;15.40;80.80;;;;;;4998625;28;20571;-74
2022/04/14 04:35:27;;;;;;;3.15;2.80;;;15.40;80.70;;;;;;5004244;28;20060;-78
2022/04/14 04:37:55;;;;;;;3.70;3.10;;;15.40;80.70;;;;;;4969984;28;20535;-77
2022/04/14 04:40:22;;;;;;;3.50;3.08;;;15.40;80.80;;;;;;5005881;28;20054;-77
2022/04/14 04:42:49;;;;;;;3.17;2.70;;;15.40;80.80;;;;;;5003833;28;20046;-75
2022/04/14 04:45:16;;;;;;;3.40;3.08;;;15.40;80.70;;;;;;5003647;28;20045;-76
2022/04/14 04:47:42;;;;;;;3.65;2.75;;;15.40;80.80;;;;;;5000975;28;20104;-77
2022/04/14 04:50:11;;;;;;;3.47;2.70;;;15.40;80.80;;;;;;5000658;28;20042;-77
2022/04/14 04:52:37;;;;;;;3.13;2.83;;;15.40;80.80;;;;;;4998632;28;20130;-76
2022/04/14 04:55:05;;;;;;;3.80;2.95;;;15.40;80.80;;;;;;4999962;28;20042;-77
2022/04/14 04:57:32;;;;;;;3.10;2.72;;;15.30;80.70;;;;;;5001114;28;20061;-75
2022/04/14 04:59:59;;;;;;;3.42;2.95;;;15.30;80.70;;;;;;5002076;28;20488;-77
2022/04/14 05:02:26;;;;;;;3.20;2.70;;;15.30;80.80;;;;;;4994127;28;20137;-77
2022/04/14 05:04:53;;;;;;;3.85;3.00;;;15.30;80.80;;;;;;4995338;28;20046;-75
2022/04/14 05:07:21;;;;;;;3.72;2.85;;;15.30;80.70;;;;;;4994237;28;20256;-75
2022/04/14 05:09:48;;;;;;;3.40;2.88;;;15.30;80.70;;;;;;4994819;28;20050;-76
2022/04/14 05:12:15;;;;;;;3.00;2.50;;;15.30;80.70;;;;;;4991659;28;20066;-77
2022/04/14 05:14:48;;;;;;;3.40;2.80;;;15.30;80.70;;;;;;4993239;28;20041;-76
2022/04/14 05:17:15;;;;;;;3.03;2.70;;;15.30;80.80;;;;;;5000847;28;20117;-75
2022/04/14 05:19:42;;;;;;;2.80;2.38;;;15.30;80.80;;;;;;5006472;28;20550;-76
2022/04/14 05:22:09;;;;;;;2.80;2.40;;;15.30;80.70;;;;;;5000971;28;20040;-74
2022/04/14 05:24:37;;;;;;;3.03;2.53;;;15.30;80.80;;;;;;5003799;28;20092;-74
2022/04/14 05:27:04;;;;;;;2.83;2.40;;;15.30;80.70;;;;;;5000695;28;20064;-76
2022/04/14 05:29:31;;;;;;;3.03;2.60;;;15.30;80.70;;;;;;4998903;28;20191;-73
2022/04/14 05:31:59;;;;;;;2.95;2.60;;;15.30;80.80;;;;;;4999791;28;20050;-75
2022/04/14 05:34:26;;;;;;;2.92;2.58;;;15.30;80.90;;;;;;5000407;28;20108;-75
2022/04/14 05:36:53;;;;;;;2.90;2.58;;;15.30;80.70;;;;;;5002967;28;20044;-74
2022/04/14 05:39:20;;;;;;;3.00;2.40;;;15.30;80.80;;;;;;5002657;28;20065;-75
2022/04/14 05:41:48;;;;;;;2.70;2.38;;;15.30;80.90;;;;;;5003530;28;20140;-77
2022/04/14 05:44:16;;;;;;;2.60;2.20;;;15.30;80.90;;;;;;5002202;28;20078;-76
2022/04/14 05:46:43;;;;;;;3.45;2.70;;;15.30;81.00;;;;;;5011447;28;20046;-76
2022/04/14 05:49:10;;;;;;;2.55;2.35;;;15.30;81.20;;;;;;5008384;28;20046;-74
2022/04/14 05:51:37;;;;;;;2.70;2.33;;;15.30;81.20;;;;;;5002533;28;20080;-75
2022/04/14 05:54:04;;;;;;;2.75;2.47;;;15.40;81.40;;;;;;5002106;28;20092;-75
2022/04/14 05:56:31;;;;;;;3.15;2.60;;;15.30;81.30;;;;;;5003098;28;20395;-75
2022/04/14 05:59:00;;;;;;;2.85;2.40;;;15.40;81.50;;;;;;5011184;28;20095;-75
2022/04/14 06:01:27;;;;;;;2.70;2.30;;;15.40;81.40;;;;;;5021676;28;20486;-76
2022/04/14 06:03:54;;;;;;;2.63;2.17;;;15.30;81.20;;;;;;5026141;28;20076;-75
2022/04/14 06:06:21;;;;;;;2.38;2.17;;;15.30;81.20;;;;;;5022310;28;20082;-75
2022/04/14 06:08:48;;;;;;;2.55;2.17;;;15.30;81.30;;;;;;5025737;28;20049;-76
2022/04/14 06:11:14;;;;;;;2.35;2.10;;;15.40;81.40;;;;;;5016965;28;20056;-74
2022/04/14 06:13:41;;;;;;;2.60;2.28;;;15.30;81.20;;;;;;5025416;28;20037;-75
2022/04/14 06:16:09;;;;;;;2.75;2.30;;;15.30;81.20;;;;;;5024461;28;20122;-74
2022/04/14 06:18:36;;;;;;;2.25;2.05;;;15.30;81.30;;;;;;5029736;28;20036;-73
2022/04/14 06:21:03;;;;;;;2.08;1.88;;;15.30;81.20;;;;;;5039145;28;20021;-74
2022/04/14 06:23:30;;;;;;;2.40;2.13;;;15.30;81.20;;;;;;5022373;28;20022;-77
2022/04/14 06:25:57;;;;;;;2.80;2.20;;;15.30;81.10;;;;;;5038380;28;20050;-74
2022/04/14 06:28:24;;;;;;;2.35;2.00;;;15.30;81.20;;;;;;5032388;28;20042;-73
2022/04/14 06:30:51;;;;;;;2.10;1.80;;;15.30;81.20;;;;;;5027119;28;20087;-76
2022/04/14 06:33:20;;;;;;;2.28;1.80;;;15.30;81.10;;;;;;5023918;28;20041;-75
2022/04/14 06:35:48;;;;;;;1.85;1.60;;;15.30;81.00;;;;;;5021351;28;20049;-74
2022/04/14 06:38:15;;;;;;;2.33;1.70;;;15.40;80.90;;;;;;4999915;28;20041;-77
2022/04/14 06:40:41;;;;;;;1.80;1.50;;;15.30;80.70;;;;;;5013688;28;20050;-76
2022/04/14 06:43:08;;;;;;;1.98;1.70;;;15.30;80.70;;;;;;5014972;28;20037;-75
2022/04/14 06:45:35;;;;;;;1.80;1.40;;;15.30;80.60;;;;;;5020299;28;20053;-76
2022/04/14 06:48:02;;;;;;;2.22;1.40;;;15.40;80.80;;;;;;5018513;28;20045;-75
2022/04/14 06:50:31;;;;;;;2.33;1.60;;;15.30;80.60;;;;;;5023837;28;20107;-77
2022/04/14 06:52:57;;;;;;;2.25;1.70;;;15.40;80.60;;;;;;5019356;28;20124;-74
2022/04/14 06:55:25;;;;;;;1.90;1.50;;;15.40;80.60;;;;;;5021801;28;20080;-74
2022/04/14 06:57:52;;;;;;;1.65;1.42;;;15.40;80.40;;;;;;5019822;28;20100;-75
2022/04/14 07:00:21;;;;;;;1.80;1.50;;;15.40;80.20;;;;;;5020183;28;20057;-75
2022/04/14 07:02:49;;;;;;;2.13;1.50;;;15.40;80.10;;;;;;5021611;28;20046;-75
2022/04/14 07:05:16;;;;;;;2.20;1.67;;;15.40;80.10;;;;;;5025396;28;20092;-74
2022/04/14 07:07:45;;;;;;;1.90;1.48;;;15.40;80.00;;;;;;5019723;28;20137;-76
2022/04/14 07:10:12;;;;;;;1.95;1.70;;;15.40;79.90;;;;;;5017807;28;20049;-75
2022/04/14 07:12:39;;;;;;;2.35;1.70;;;15.40;79.90;;;;;;5021649;28;20487;-75
2022/04/14 07:15:07;;;;;;;2.10;1.60;;;15.40;80.00;;;;;;5002679;28;20049;-76
2022/04/14 07:17:34;;;;;;;2.45;1.80;;;15.40;80.10;;;;;;5027909;28;20045;-74
2022/04/14 07:20:03;;;;;;;2.42;1.80;;;15.40;80.40;;;;;;5021325;28;20425;-76
2022/04/14 07:22:31;;;;;;;2.88;1.83;;;15.40;80.30;;;;;;5023423;28;20038;-77
2022/04/14 07:25:00;;;;;;;2.17;1.60;;;15.50;80.50;;;;;;5022680;28;20114;-74
2022/04/14 07:27:27;;;;;;;3.17;1.83;;;15.40;80.10;;;;;;5023419;28;20118;-77
2022/04/14 07:30:00;;;;;;;2.28;1.50;;;15.40;80.10;;;;;;5025237;28;20041;-75
2022/04/14 07:32:35;;;;;;;2.65;1.80;;;15.50;80.10;;;;;;5023823;28;20046;-74
2022/04/14 07:35:03;;;;;;;2.38;1.70;;;15.50;80.10;;;;;;5018364;28;20044;-76
2022/04/14 07:37:31;;;;;;;2.67;1.63;;;15.50;80.20;;;;;;5022021;28;20500;-74
2022/04/14 07:39:57;;;;;;;2.95;1.80;;;15.50;80.20;;;;;;5022936;28;20564;-75
2022/04/14 07:42:33;;;;;;;1.83;1.55;;;15.50;80.60;;;;;;5005914;28;20136;-75
2022/04/14 07:45:00;;;;;;;3.25;1.70;;;15.50;80.30;;;;;;5017332;28;20448;-73
2022/04/14 07:47:27;;;;;;;3.05;1.92;;;15.50;80.30;;;;;;5022584;28;20042;-74
2022/04/14 07:49:54;;;;;;;2.08;1.70;;;15.50;80.40;;;;;;5022023;28;20099;-74
2022/04/14 07:52:20;;;;;;;2.67;1.73;;;15.50;80.40;;;;;;5020791;28;20049;-74
2022/04/14 07:54:47;;;;;;;2.60;1.70;;;15.60;80.50;;;;;;5018841;28;20065;-75
2022/04/14 07:57:14;;;;;;;2.40;1.90;;;15.60;80.50;;;;;;5025193;28;20132;-76
2022/04/14 07:59:42;;;;;;;2.05;1.75;;;15.60;80.60;;;;;;5018838;28;20053;-74
2022/04/14 08:02:10;;;;;;;2.35;1.83;;;15.60;80.60;;;;;;5023993;28;20050;-76
2022/04/14 08:04:38;;;;;;;3.13;2.40;;;15.60;80.80;;;;;;5017009;28;20045;-76
2022/04/14 08:07:05;;;;;;;3.25;2.10;;;15.60;81.10;;;;;;5022772;28;20041;-77
2022/04/14 08:09:32;;;;;;;3.05;2.22;;;15.60;81.20;;;;;;5023018;28;20045;-75
2022/04/14 08:11:59;;;;;;;3.63;2.50;;;15.60;81.20;;;;;;5024221;28;20050;-77
2022/04/14 08:14:26;;;;;;;4.53;2.65;;;15.60;81.50;;;;;;5031751;28;20124;-75
2022/04/14 08:16:57;;;;;;;3.30;2.45;;;15.70;81.50;;;;;;5025810;28;20049;-75
2022/04/14 08:19:24;;;;;;;3.95;2.97;;;15.60;81.60;;;;;;5026324;28;20043;-74
2022/04/14 08:21:51;;;;;;;4.25;3.10;;;15.70;82.00;;;;;;5038472;28;20077;-75
2022/04/14 08:24:18;;;;;;;3.83;3.40;;;15.70;82.10;;;;;;5013498;28;20791;-78
2022/04/14 08:26:45;;;;;;;47.97;7.32;;;15.70;82.30;;;;;;5035562;28;20053;-76
2022/04/14 08:29:13;;;;;;;49.25;8.20;;;15.70;82.80;;;;;;5035111;28;20041;-77
2022/04/14 08:31:40;;;;;;;34.17;7.20;;;15.70;83.60;;;;;;5033019;28;20116;-76
2022/04/14 08:34:08;;;;;;;25.05;6.65;;;15.80;83.80;;;;;;5024742;28;20128;-74
2022/04/14 08:36:36;;;;;;;30.27;6.25;;;15.80;83.60;;;;;;5022533;28;20116;-76
2022/04/14 08:39:03;;;;;;;34.22;6.85;;;15.80;83.60;;;;;;5021209;28;20554;-76
2022/04/14 08:41:34;;;;;;;29.60;6.38;;;15.80;83.80;;;;;;5026003;28;20138;-78
2022/04/14 08:44:05;;;;;;;23.73;7.43;;;15.80;83.70;;;;;;5015962;28;20120;-77
2022/04/14 08:46:32;;;;;;;24.65;7.35;;;15.80;84.30;;;;;;5021982;28;20068;-75
2022/04/14 08:49:00;;;;;;;20.38;5.95;;;15.80;84.40;;;;;;5023214;28;20173;-75
2022/04/14 08:51:33;;;;;;;26.33;6.82;;;15.90;84.50;;;;;;5025039;28;20045;-77
2022/04/14 08:54:00;;;;;;;21.33;5.95;;;16.00;85.50;;;;;;5022455;28;20045;-75
2022/04/14 08:56:27;;;;;;;23.10;8.07;;;15.90;84.60;;;;;;5002033;28;20046;-75
2022/04/14 08:58:56;;;;;;;19.25;6.43;;;15.90;87.00;;;;;;5022128;28;20045;-76
2022/04/14 09:01:25;;;;;;;14.43;6.07;;;16.00;85.80;;;;;;5032615;28;20049;-76
2022/04/14 09:03:54;;;;;;;19.23;6.00;;;15.90;85.30;;;;;;5031203;28;20045;-78
2022/04/14 09:06:23;;;;;;;22.25;6.28;;;15.90;85.40;;;;;;5024417;28;20041;-78
2022/04/14 09:08:51;;;;;;;17.55;6.35;;;16.00;85.60;;;;;;5022237;28;20062;-77
2022/04/14 09:11:18;;;;;;;20.33;5.88;;;15.90;85.20;;;;;;5018134;28;20041;-76
2022/04/14 09:13:46;;;;;;;13.13;6.22;;;15.90;85.20;;;;;;5002576;28;20041;-79
2022/04/14 09:16:13;;;;;;;10.45;5.35;;;16.00;85.30;;;;;;5023299;28;20047;-76
2022/04/14 09:18:40;;;;;;;15.05;5.03;;;16.00;85.20;;;;;;5003307;28;20072;-75
2022/04/14 09:21:08;;;;;;;12.02;5.05;;;16.00;85.20;;;;;;5015663;28;20076;-75
2022/04/14 09:23:36;;;;;;;14.38;5.13;;;15.90;85.10;;;;;;5014956;28;20056;-77
2022/04/14 09:26:13;;;;;;;14.70;5.03;;;16.00;84.90;;;;;;5018499;28;20049;-76
2022/04/14 09:28:42;;;;;;;14.40;4.25;;;16.00;85.20;;;;;;5014945;28;20064;-75
2022/04/14 09:31:11;;;;;;;13.32;4.55;;;16.00;85.00;;;;;;5019331;28;20053;-76
2022/04/14 09:33:46;;;;;;;12.23;4.72;;;16.00;84.90;;;;;;5014727;28;20045;-76
2022/04/14 09:36:16;;;;;;;14.90;7.65;;;16.00;85.00;;;;;;5022738;28;20108;-76
2022/04/14 09:38:55;;;;;;;10.80;5.90;;;16.20;88.00;;;;;;5007580;28;20052;-75
2022/04/14 09:41:33;;;;;;;21.08;5.95;;;16.10;86.50;;;;;;5017124;28;20087;-76
2022/04/14 09:44:02;;;;;;;20.33;5.78;;;16.10;86.10;;;;;;5020799;28;20048;-76
2022/04/14 09:46:29;;;;;;;11.35;5.40;;;16.20;87.40;;;;;;5002460;28;20049;-77
2022/04/14 09:49:03;;;;;;;12.68;5.30;;;16.10;86.70;;;;;;5021502;28;20088;-74
2022/04/14 09:51:30;;;;;;;17.08;5.90;;;16.20;87.00;;;;;;5017257;28;20037;-76
2022/04/14 09:54:04;;;;;;;16.77;5.60;;;16.20;87.70;;;;;;5021814;28;20068;-75
2022/04/14 09:56:42;;;;;;;16.83;5.25;;;16.20;87.40;;;;;;5022017;28;20037;-76
2022/04/14 09:59:19;;;;;;;15.18;5.10;;;16.20;87.50;;;;;;4999946;28;20050;-76
2022/04/14 10:01:47;;;;;;;11.68;4.93;;;16.20;87.20;;;;;;4995407;28;20077;-75
2022/04/14 10:04:34;;;;;;;12.95;5.03;;;16.20;87.20;;;;;;5001151;28;20042;-75
2022/04/14 10:07:04;;;;;;;11.05;4.70;;;16.30;87.30;;;;;;5000381;28;20046;-76
2022/04/14 10:09:31;;;;;;;9.57;4.50;;;16.20;87.00;;;;;;4996675;28;20045;-76
2022/04/14 10:12:01;;;;;;;9.68;4.28;;;16.20;86.90;;;;;;4998274;28;20664;-75
2022/04/14 10:14:27;;;;;;;9.93;4.10;;;16.20;87.00;;;;;;5001498;28;20096;-76
2022/04/14 10:16:56;;;;;;;9.98;4.07;;;16.20;87.00;;;;;;5003964;28;20034;-75
2022/04/14 10:19:24;;;;;;;9.93;3.88;;;16.20;86.90;;;;;;5009846;28;20044;-75
2022/04/14 10:21:52;;;;;;;6.63;3.65;;;16.20;86.80;;;;;;5019421;28;20089;-74
2022/04/14 10:24:19;;;;;;;6.88;3.38;;;16.30;86.90;;;;;;5017286;28;20041;-74
2022/04/14 10:26:48;;;;;;;6.18;3.33;;;16.30;86.90;;;;;;5008585;28;20101;-76
2022/04/14 10:29:20;;;;;;;6.70;3.55;;;16.20;86.70;;;;;;5006752;28;20053;-76
2022/04/14 10:31:53;;;;;;;7.43;3.60;;;16.30;86.70;;;;;;5007523;28;20042;-76
2022/04/14 10:34:22;;;;;;;5.88;3.20;;;16.30;86.80;;;;;;5018790;28;20049;-75
2022/04/14 10:36:51;;;;;;;6.90;3.10;;;16.30;86.70;;;;;;5007373;28;20065;-74
2022/04/14 10:39:20;;;;;;;8.57;3.10;;;16.30;86.70;;;;;;5007533;28;20049;-76
2022/04/14 10:41:51;;;;;;;4.57;3.00;;;16.30;86.60;;;;;;5008896;28;20046;-74
2022/04/14 10:44:22;;;;;;;6.57;3.35;;;16.30;86.40;;;;;;5004381;28;20065;-74
2022/04/14 10:46:51;;;;;;;5.33;2.80;;;16.30;86.40;;;;;;5005734;28;20078;-76
2022/04/14 10:49:24;;;;;;;4.35;2.90;;;16.30;86.40;;;;;;5007798;28;20057;-75
2022/04/14 10:51:53;;;;;;;6.03;3.03;;;16.30;86.30;;;;;;4996446;28;20128;-76
2022/04/14 10:54:20;;;;;;;6.65;2.85;;;16.30;86.20;;;;;;5007221;28;20046;-75
2022/04/14 10:56:52;;;;;;;5.70;3.10;;;16.30;86.20;;;;;;5005146;28;20046;-76
2022/04/14 10:59:22;;;;;;;4.90;3.07;;;16.30;86.20;;;;;;5015733;28;20056;-76
2022/04/14 11:01:53;;;;;;;5.68;2.83;;;16.30;86.20;;;;;;5023745;28;20048;-76
2022/04/14 11:04:25;;;;;;;4.50;2.70;;;16.30;86.10;;;;;;5022890;28;20033;-76
2022/04/14 11:06:54;;;;;;;5.75;2.53;;;16.30;85.90;;;;;;5026651;28;20068;-74
2022/04/14 11:09:50;;;;;;;5.80;2.88;;;16.30;85.90;;;;;;5024348;28;20124;-74
2022/04/14 11:12:19;;;;;;;3.83;2.45;;;16.30;85.90;;;;;;5020980;28;20099;-75
2022/04/14 11:14:50;;;;;;;5.70;2.83;;;16.30;85.80;;;;;;5006271;28;20540;-76
2022/04/14 11:17:48;;;;;;;7.05;2.72;;;16.30;85.90;;;;;;5000146;28;20136;-75
2022/04/14 11:20:20;;;;;;;6.18;2.78;;;16.30;85.80;;;;;;5026558;28;20045;-77
2022/04/14 11:23:04;;;;;;;7.22;2.83;;;16.30;85.80;;;;;;5023082;28;20042;-78
2022/04/14 11:25:44;;;;;;;7.43;2.72;;;16.30;85.80;;;;;;5027876;28;20120;-76
2022/04/14 11:28:19;;;;;;;4.15;2.78;;;16.30;85.70;;;;;;5014641;28;20095;-76
2022/04/14 11:30:48;;;;;;;4.28;2.85;;;16.30;85.70;;;;;;5023382;28;20045;-76
2022/04/14 11:33:21;;;;;;;4.90;2.90;;;16.30;85.70;;;;;;5019827;28;20510;-75
2022/04/14 11:35:49;;;;;;;5.50;2.78;;;16.30;85.70;;;;;;5023487;28;20072;-76
2022/04/14 11:39:04;;;;;;;3.97;2.25;;;16.30;85.60;;;;;;5017553;28;20041;-75
2022/04/14 11:41:34;;;;;;;3.70;2.60;;;16.40;85.70;;;;;;4977861;28;20084;-76
2022/04/14 11:44:02;;;;;;;4.25;2.70;;;16.40;85.60;;;;;;5012411;28;20140;-78
2022/04/14 11:46:31;;;;;;;9.48;3.10;;;16.40;85.50;;;;;;5018741;28;20097;-75
2022/04/14 11:49:00;;;;;;;5.47;2.75;;;16.40;85.50;;;;;;5021356;28;20121;-77
2022/04/14 11:51:27;;;;;;;8.10;3.30;;;16.50;85.70;;;;;;5025768;28;20043;-76
2022/04/14 11:53:56;;;;;;;6.25;3.72;;;16.50;85.70;;;;;;5023250;28;20100;-76
2022/04/14 11:56:24;;;;;;;7.13;3.90;;;16.50;85.80;;;;;;5024637;28;20045;-76
2022/04/14 11:58:52;;;;;;;5.57;4.00;;;16.50;85.70;;;;;;5021646;28;20049;-76
2022/04/14 12:01:20;;;;;;;7.60;3.72;;;16.60;85.70;;;;;;5022939;28;20092;-76
2022/04/14 12:03:48;;;;;;;9.65;4.05;;;16.60;85.70;;;;;;5020350;28;20041;-73
2022/04/14 12:06:17;;;;;;;10.82;3.80;;;16.60;85.60;;;;;;5024125;28;20132;-74
2022/04/14 12:08:54;;;;;;;9.90;3.50;;;16.60;85.50;;;;;;5004840;28;20049;-77
2022/04/14 12:11:24;;;;;;;9.90;3.55;;;16.60;85.40;;;;;;5001173;28;20052;-77
2022/04/14 12:13:59;;;;;;;5.47;3.55;;;16.60;85.30;;;;;;5001763;28;20460;-75
2022/04/14 12:16:33;;;;;;;7.82;3.40;;;16.60;85.20;;;;;;5025115;28;20116;-75
2022/04/14 12:19:02;;;;;;;6.30;3.40;;;16.50;84.90;;;;;;5026351;28;20044;-76
2022/04/14 12:21:29;;;;;;;7.25;3.50;;;16.50;84.90;;;;;;5042778;28;20055;-75
2022/04/14 12:24:00;;;;;;;5.97;3.25;;;16.60;85.10;;;;;;5030923;28;20052;-75
2022/04/14 12:26:28;;;;;;;5.93;3.35;;;16.60;85.20;;;;;;5009093;28;20088;-75
2022/04/14 12:28:55;;;;;;;5.45;3.10;;;16.60;85.20;;;;;;5019414;28;20128;-74
2022/04/14 12:31:23;;;;;;;6.22;2.80;;;16.60;85.00;;;;;;5022740;28;20040;-75
2022/04/14 12:33:57;;;;;;;5.50;2.78;;;16.60;84.90;;;;;;5017216;28;20045;-77
2022/04/14 12:36:35;;;;;;;4.38;2.70;;;16.50;84.60;;;;;;5020967;28;20049;-76
2022/04/14 12:39:06;;;;;;;5.35;2.90;;;16.60;84.60;;;;;;4995922;28;20052;-77
2022/04/14 12:41:40;;;;;;;4.18;2.50;;;16.60;84.40;;;;;;5022130;28;20095;-76
2022/04/14 12:44:07;;;;;;;5.30;2.42;;;16.60;84.40;;;;;;5019960;28;20567;-76
2022/04/14 12:46:39;;;;;;;4.65;2.53;;;16.60;85.10;;;;;;5026249;28;20123;-75
2022/04/14 12:49:08;;;;;;;4.65;2.70;;;16.60;84.20;;;;;;5026915;28;20034;-77
2022/04/14 12:51:39;;;;;;;4.90;2.28;;;16.60;84.10;;;;;;5028631;28;20322;-77
2022/04/14 12:54:06;;;;;;;7.38;2.30;;;16.60;84.00;;;;;;4999523;28;20189;-77